createdAt,value
2023-04-12T00:02:21.382Z,2.00
2023-04-12T00:04:55.710Z,2.25
2023-04-12T00:07:24.522Z,1.90
2023-04-12T00:09:52.171Z,1.95
2023-04-12T00:12:19.769Z,2.30
2023-04-12T00:14:47.370Z,1.98
2023-04-12T00:17:15.005Z,2.38
2023-04-12T00:19:42.209Z,2.15
2023-04-12T00:22:10.311Z,2.13
2023-04-12T00:24:40.623Z,2.05
2023-04-12T00:27:08.685Z,2.28
2023-04-12T00:29:36.060Z,2.33
2023-04-12T00:32:05.859Z,1.95
2023-04-12T00:34:33.417Z,2.45
2023-04-12T00:37:02.447Z,2.08
2023-04-12T00:39:29.762Z,2.00
2023-04-12T00:42:01.114Z,2.05
2023-04-12T00:44:28.210Z,2.40
2023-04-12T00:46:55.528Z,2.15
2023-04-12T00:49:22.920Z,1.92
2023-04-12T00:51:50.154Z,2.30
2023-04-12T00:54:18.450Z,2.15
2023-04-12T00:56:47.467Z,2.30
2023-04-12T00:59:14.742Z,2.45
2023-04-12T01:01:42.123Z,2.42
2023-04-12T01:04:14.170Z,2.30
2023-04-12T01:07:01.981Z,2.63
2023-04-12T01:09:52.438Z,2.00
2023-04-12T01:12:25.333Z,2.28
2023-04-12T01:15:07.544Z,2.42
2023-04-12T01:17:44.371Z,2.28
2023-04-12T01:20:27.839Z,2.28
2023-04-12T01:23:07.405Z,2.03
2023-04-12T01:25:43.409Z,2.05
2023-04-12T01:28:15.329Z,2.58
2023-04-12T01:30:43.739Z,2.22
2023-04-12T01:33:12.686Z,2.08
2023-04-12T01:35:41.235Z,2.28
2023-04-12T01:38:09.909Z,2.22
2023-04-12T01:40:40.681Z,2.50
2023-04-12T01:43:13.580Z,2.65
2023-04-12T01:45:41.245Z,2.78
2023-04-12T01:48:10.184Z,2.28
2023-04-12T01:50:59.135Z,2.58
2023-04-12T01:53:32.391Z,2.08
2023-04-12T01:56:01.800Z,2.60
2023-04-12T01:58:30.478Z,2.65
2023-04-12T02:01:00.203Z,2.28
2023-04-12T02:03:31.124Z,2.38
2023-04-12T02:06:00.109Z,2.38
2023-04-12T02:08:27.311Z,2.05
2023-04-12T02:10:55.263Z,1.80
2023-04-12T02:13:22.638Z,2.20
2023-04-12T02:15:49.962Z,2.00
2023-04-12T02:18:17.866Z,2.00
2023-04-12T02:20:45.225Z,2.17
2023-04-12T02:23:13.066Z,1.90
2023-04-12T02:25:41.651Z,2.30
2023-04-12T02:28:08.882Z,2.30
2023-04-12T02:30:36.237Z,2.40
2023-04-12T02:33:04.807Z,1.75
2023-04-12T02:35:32.852Z,2.30
2023-04-12T02:38:00.242Z,2.00
2023-04-12T02:40:27.592Z,2.55
2023-04-12T02:42:54.934Z,2.22
2023-04-12T02:45:22.625Z,2.65
2023-04-12T02:47:49.895Z,2.00
2023-04-12T02:50:17.339Z,2.60
2023-04-12T02:52:44.547Z,2.60
2023-04-12T02:55:11.648Z,2.65
2023-04-12T02:57:38.771Z,2.28
2023-04-12T03:00:12.559Z,2.05
2023-04-12T03:02:40.311Z,2.17
2023-04-12T03:05:08.085Z,2.03
2023-04-12T03:07:36.345Z,2.30
2023-04-12T03:10:07.518Z,2.00
2023-04-12T03:12:35.241Z,2.17
2023-04-12T03:15:02.810Z,2.30
2023-04-12T03:17:30.200Z,2.25
2023-04-12T03:20:03.231Z,2.65
2023-04-12T03:22:31.442Z,2.70
2023-04-12T03:24:58.696Z,2.22
2023-04-12T03:27:26.378Z,2.90
2023-04-12T03:29:53.706Z,2.50
2023-04-12T03:32:21.420Z,2.53
2023-04-12T03:34:48.633Z,2.38
2023-04-12T03:37:16.110Z,2.65
2023-04-12T03:39:48.569Z,2.97
2023-04-12T03:42:31.803Z,2.83
2023-04-12T03:45:00.775Z,2.90
2023-04-12T03:47:28.072Z,2.70
2023-04-12T03:50:11.071Z,2.60
2023-04-12T03:52:39.752Z,2.60
2023-04-12T03:55:08.156Z,2.92
2023-04-12T03:57:35.906Z,2.90
2023-04-12T04:00:04.253Z,2.47
2023-04-12T04:02:32.192Z,2.70
2023-04-12T04:04:59.846Z,2.70
2023-04-12T04:07:27.284Z,2.92
2023-04-12T04:09:55.791Z,2.72
2023-04-12T04:12:22.985Z,3.00
2023-04-12T04:14:50.353Z,2.53
2023-04-12T04:17:17.707Z,2.63
2023-04-12T04:19:45.067Z,2.85
2023-04-12T04:22:14.125Z,2.78
2023-04-12T04:24:41.380Z,2.50
2023-04-12T04:27:08.700Z,2.45
2023-04-12T04:29:37.052Z,2.63
2023-04-12T04:32:04.784Z,2.38
2023-04-12T04:34:31.972Z,2.60
2023-04-12T04:36:59.266Z,3.00
2023-04-12T04:39:27.562Z,2.90
2023-04-12T04:41:55.281Z,3.03
2023-04-12T04:44:22.575Z,3.03
2023-04-12T04:46:49.754Z,2.60
2023-04-12T04:49:17.138Z,2.38
2023-04-12T04:51:44.318Z,3.00
2023-04-12T04:54:11.755Z,2.95
2023-04-12T04:56:39.287Z,2.13
2023-04-12T04:59:06.746Z,2.65
2023-04-12T05:01:36.802Z,2.30
2023-04-12T05:04:04.464Z,2.33
2023-04-12T05:06:31.774Z,2.30
2023-04-12T05:09:00.880Z,2.17
2023-04-12T05:11:28.165Z,1.77
2023-04-12T05:13:55.529Z,2.20
2023-04-12T05:16:22.822Z,2.70
2023-04-12T05:18:49.994Z,2.10
2023-04-12T05:21:17.107Z,2.17
2023-04-12T05:23:46.353Z,2.22
2023-04-12T05:26:14.033Z,2.70
2023-04-12T05:28:41.491Z,2.17
2023-04-12T05:31:09.734Z,1.95
2023-04-12T05:33:37.668Z,2.50
2023-04-12T05:36:05.786Z,2.30
2023-04-12T05:38:33.002Z,2.00
2023-04-12T05:41:04.376Z,2.20
2023-04-12T05:43:31.900Z,2.60
2023-04-12T05:46:00.551Z,2.00
2023-04-12T05:48:27.847Z,1.92
2023-04-12T05:50:55.659Z,2.10
2023-04-12T05:53:23.276Z,2.10
2023-04-12T05:55:51.828Z,1.95
2023-04-12T05:58:19.274Z,2.10
2023-04-12T06:00:46.525Z,2.20
2023-04-12T06:03:13.897Z,2.13
2023-04-12T06:05:41.532Z,2.35
2023-04-12T06:08:09.264Z,2.55
2023-04-12T06:10:36.860Z,2.05
2023-04-12T06:13:04.180Z,2.17
2023-04-12T06:15:32.374Z,2.30
2023-04-12T06:18:00.697Z,1.90
2023-04-12T06:20:28.306Z,2.22
2023-04-12T06:22:55.424Z,2.15
2023-04-12T06:25:23.245Z,2.05
2023-04-12T06:27:50.619Z,2.42
2023-04-12T06:30:18.674Z,2.00
2023-04-12T06:32:45.839Z,1.80
2023-04-12T06:35:12.878Z,1.73
2023-04-12T06:37:39.930Z,2.10
2023-04-12T06:40:07.853Z,1.90
2023-04-12T06:42:35.093Z,1.83
2023-04-12T06:45:02.384Z,2.30
2023-04-12T06:47:32.870Z,2.30
2023-04-12T06:50:00.004Z,1.90
2023-04-12T06:52:27.288Z,1.92
2023-04-12T06:54:56.976Z,1.92
2023-04-12T06:57:24.517Z,1.75
2023-04-12T06:59:51.815Z,1.70
2023-04-12T07:02:19.153Z,1.92
2023-04-12T07:04:46.421Z,2.00
2023-04-12T07:07:13.617Z,1.80
2023-04-12T07:09:40.915Z,1.95
2023-04-12T07:12:08.065Z,1.80
2023-04-12T07:14:35.131Z,1.88
2023-04-12T07:17:02.221Z,1.90
2023-04-12T07:19:31.425Z,1.60
2023-04-12T07:21:58.981Z,1.63
2023-04-12T07:24:26.561Z,2.15
2023-04-12T07:26:57.425Z,1.90
2023-04-12T07:29:24.502Z,1.60
2023-04-12T07:31:51.760Z,1.42
2023-04-12T07:34:18.973Z,1.70
2023-04-12T07:36:46.134Z,2.03
2023-04-12T07:39:13.960Z,2.05
2023-04-12T07:41:43.469Z,1.70
2023-04-12T07:44:10.453Z,1.77
2023-04-12T07:46:37.566Z,1.90
2023-04-12T07:49:04.882Z,1.67
2023-04-12T07:51:33.102Z,1.85
2023-04-12T07:54:00.109Z,1.65
2023-04-12T07:56:27.212Z,1.60
2023-04-12T07:58:54.368Z,1.75
2023-04-12T08:01:21.483Z,1.83
2023-04-12T08:03:48.553Z,3.20
2023-04-12T08:06:15.863Z,2.15
2023-04-12T08:08:42.971Z,1.85
2023-04-12T08:11:09.946Z,2.25
2023-04-12T08:13:37.170Z,1.70
2023-04-12T08:16:04.540Z,1.80
2023-04-12T08:18:31.773Z,1.63
2023-04-12T08:20:59.109Z,1.98
2023-04-12T08:23:26.738Z,1.52
2023-04-12T08:26:03.445Z,1.60
2023-04-12T08:28:31.453Z,1.58
2023-04-12T08:30:59.481Z,1.83
2023-04-12T08:33:27.208Z,1.67
2023-04-12T08:35:54.571Z,1.50
2023-04-12T08:38:30.752Z,1.50
2023-04-12T08:41:08.809Z,1.90
2023-04-12T08:43:43.392Z,2.10
2023-04-12T08:46:10.918Z,1.58
2023-04-12T08:48:40.225Z,1.40
2023-04-12T08:51:08.592Z,1.52
2023-04-12T08:53:35.764Z,1.95
2023-04-12T08:56:03.342Z,1.40
2023-04-12T08:58:31.432Z,1.67
2023-04-12T09:00:59.357Z,1.70
2023-04-12T09:03:26.808Z,1.70
2023-04-12T09:05:54.186Z,1.52
2023-04-12T09:08:21.213Z,1.60
2023-04-12T09:10:48.296Z,1.70
2023-04-12T09:13:15.354Z,1.52
2023-04-12T09:15:50.039Z,1.77
2023-04-12T09:18:17.653Z,1.83
2023-04-12T09:20:44.802Z,1.42
2023-04-12T09:23:24.269Z,1.75
2023-04-12T09:25:54.523Z,1.60
2023-04-12T09:28:28.179Z,1.65
2023-04-12T09:30:56.708Z,1.60
2023-04-12T09:33:39.860Z,2.05
2023-04-12T09:36:13.897Z,1.63
2023-04-12T09:38:43.143Z,1.48
2023-04-12T09:41:23.560Z,1.63
2023-04-12T09:43:53.680Z,1.63
2023-04-12T09:46:20.996Z,2.00
2023-04-12T09:48:53.131Z,1.75
2023-04-12T09:51:28.842Z,1.67
2023-04-12T09:54:00.892Z,1.95
2023-04-12T09:56:33.646Z,1.67
2023-04-12T09:59:06.330Z,1.80
2023-04-12T10:01:40.444Z,1.48
2023-04-12T10:06:41.576Z,1.70
2023-04-12T10:09:09.103Z,1.60
2023-04-12T10:11:37.610Z,1.55
2023-04-12T10:14:06.261Z,1.40
2023-04-12T10:16:34.803Z,1.60
2023-04-12T10:19:04.212Z,1.83
2023-04-12T10:21:31.696Z,1.60
2023-04-12T10:23:59.213Z,2.10
2023-04-12T10:26:26.603Z,1.60
2023-04-12T10:29:25.437Z,1.83
2023-04-12T10:31:53.634Z,2.00
2023-04-12T10:34:31.489Z,2.00
2023-04-12T10:36:59.672Z,1.80
2023-04-12T10:39:41.700Z,7.50
2023-04-12T10:42:28.690Z,1.27
2023-04-12T10:45:17.277Z,1.75
2023-04-12T10:47:50.386Z,1.60
2023-04-12T10:50:27.308Z,1.65
2023-04-12T10:53:17.334Z,1.50
2023-04-12T10:55:45.706Z,1.60
2023-04-12T10:58:47.912Z,1.40
2023-04-12T11:01:18.625Z,1.10
2023-04-12T11:04:14.809Z,1.23
2023-04-12T11:07:03.554Z,1.33
2023-04-12T11:09:43.560Z,1.30
2023-04-12T11:12:13.004Z,1.30
2023-04-12T11:14:51.074Z,1.40
2023-04-12T11:17:18.178Z,1.30
2023-04-12T11:19:52.646Z,1.67
2023-04-12T11:22:21.598Z,1.38
2023-04-12T11:24:53.932Z,1.63
2023-04-12T11:27:22.541Z,1.58
2023-04-12T11:29:52.723Z,1.35
2023-04-12T11:32:23.579Z,1.40
2023-04-12T11:34:51.237Z,1.83
2023-04-12T11:37:21.835Z,1.70
2023-04-12T11:39:52.265Z,1.90
2023-04-12T11:42:24.244Z,1.55
2023-04-12T11:44:58.958Z,1.92
2023-04-12T11:47:28.031Z,1.80
2023-04-12T11:49:59.519Z,2.10
2023-04-12T11:52:31.373Z,2.53
2023-04-12T11:55:02.305Z,2.33
2023-04-12T11:57:29.453Z,2.20
2023-04-12T11:59:59.534Z,2.80
2023-04-12T12:02:30.368Z,2.58
2023-04-12T12:04:59.453Z,2.80
2023-04-12T12:07:26.845Z,2.80
2023-04-12T12:09:54.361Z,2.60
2023-04-12T12:12:24.347Z,2.95
2023-04-12T12:14:51.873Z,3.35
2023-04-12T12:17:19.643Z,3.60
2023-04-12T12:19:47.264Z,3.20
2023-04-12T12:22:20.123Z,3.28
2023-04-12T12:24:51.576Z,3.55
2023-04-12T12:27:20.564Z,3.75
2023-04-12T12:29:51.665Z,3.40
2023-04-12T12:32:19.982Z,3.17
2023-04-12T12:34:58.452Z,3.45
2023-04-12T12:37:28.255Z,2.80
2023-04-12T12:40:11.462Z,3.10
2023-04-12T12:42:52.080Z,2.38
2023-04-12T12:45:21.047Z,2.10
2023-04-12T12:47:58.808Z,2.60
2023-04-12T12:50:27.772Z,2.30
2023-04-12T12:52:56.013Z,2.40
2023-04-12T12:55:24.877Z,2.83
2023-04-12T12:58:07.392Z,2.28
2023-04-12T13:00:35.652Z,2.50
2023-04-12T13:03:03.369Z,2.42
2023-04-12T13:05:30.930Z,2.45
2023-04-12T13:07:59.717Z,2.08
2023-04-12T13:10:27.623Z,2.10
2023-04-12T13:12:54.802Z,2.15
2023-04-12T13:15:24.162Z,1.80
2023-04-12T13:17:55.506Z,1.70
2023-04-12T13:20:23.090Z,1.75
2023-04-12T13:22:52.302Z,1.60
2023-04-12T13:25:20.037Z,1.50
2023-04-12T13:27:49.202Z,1.55
2023-04-12T13:30:16.612Z,1.80
2023-04-12T13:32:44.858Z,1.17
2023-04-12T13:35:12.605Z,1.40
2023-04-12T13:37:39.952Z,1.52
2023-04-12T13:40:07.602Z,2.00
2023-04-12T13:42:34.778Z,1.60
2023-04-12T13:45:02.148Z,1.60
2023-04-12T13:47:29.159Z,1.70
2023-04-12T13:49:56.256Z,1.70
2023-04-12T13:52:23.351Z,1.75
2023-04-12T13:54:51.619Z,1.60
2023-04-12T13:57:18.742Z,1.70
2023-04-12T13:59:45.850Z,1.30
2023-04-12T14:02:13.038Z,1.38
2023-04-12T14:04:53.739Z,1.30
2023-04-12T14:07:21.392Z,1.40
2023-04-12T14:09:48.874Z,1.67
2023-04-12T14:12:16.277Z,1.60
2023-04-12T14:14:43.434Z,1.40
2023-04-12T14:17:10.620Z,1.50
2023-04-12T14:19:37.641Z,1.80
2023-04-12T14:22:04.866Z,1.63
2023-04-12T14:24:32.073Z,1.95
2023-04-12T14:27:01.050Z,1.70
2023-04-12T14:29:28.306Z,2.00
2023-04-12T14:31:55.401Z,2.10
2023-04-12T14:34:22.452Z,1.50
2023-04-12T14:36:49.495Z,1.80
2023-04-12T14:39:17.304Z,1.63
2023-04-12T14:41:44.314Z,1.65
2023-04-12T14:44:11.414Z,1.83
2023-04-12T14:46:38.697Z,1.55
2023-04-12T14:49:06.325Z,1.77
2023-04-12T14:51:33.326Z,2.22
2023-04-12T14:54:00.933Z,1.83
2023-04-12T14:56:30.223Z,1.75
2023-04-12T14:58:58.253Z,2.10
2023-04-12T15:01:26.150Z,1.67
2023-04-12T15:03:53.897Z,1.80
2023-04-12T15:06:27.349Z,2.45
2023-04-12T15:08:54.944Z,1.53
2023-04-12T15:11:27.341Z,2.13
2023-04-12T15:13:55.567Z,2.38
2023-04-12T15:16:23.411Z,2.03
2023-04-12T15:18:51.983Z,2.60
2023-04-12T15:21:19.285Z,3.10
2023-04-12T15:23:47.500Z,3.90
2023-04-12T15:26:14.892Z,2.40
2023-04-12T15:28:42.711Z,2.20
2023-04-12T15:31:12.115Z,2.85
2023-04-12T15:33:39.294Z,2.28
2023-04-12T15:36:06.762Z,2.45
2023-04-12T15:38:41.522Z,1.85
2023-04-12T15:41:09.143Z,2.90
2023-04-12T15:43:36.377Z,2.30
2023-04-12T15:46:03.648Z,2.17
2023-04-12T15:48:31.024Z,2.10
2023-04-12T15:50:58.080Z,1.88
2023-04-12T15:53:27.452Z,1.70
2023-04-12T15:55:57.952Z,2.03
2023-04-12T15:58:27.129Z,2.28
2023-04-12T16:00:54.582Z,2.20
2023-04-12T16:03:27.387Z,1.92
2023-04-12T16:05:54.766Z,2.03
2023-04-12T16:08:22.873Z,2.80
2023-04-12T16:10:53.472Z,2.38
2023-04-12T16:13:20.894Z,2.53
2023-04-12T16:15:48.381Z,2.80
2023-04-12T16:18:17.323Z,2.65
2023-04-12T16:20:45.382Z,2.55
2023-04-12T16:23:13.085Z,4.45
2023-04-12T16:25:40.499Z,4.00
2023-04-12T16:28:08.246Z,4.20
2023-04-12T16:30:36.110Z,6.20
2023-04-12T16:33:03.285Z,4.28
2023-04-12T16:35:32.114Z,3.28
2023-04-12T16:37:59.260Z,2.97
2023-04-12T16:40:26.974Z,2.60
2023-04-12T16:42:54.040Z,2.80
2023-04-12T16:45:21.820Z,2.05
2023-04-12T16:47:48.945Z,2.50
2023-04-12T16:50:16.739Z,2.33
2023-04-12T16:52:43.845Z,2.40
2023-04-12T16:55:12.201Z,3.15
2023-04-12T16:57:43.556Z,2.30
2023-04-12T17:00:23.154Z,2.00
2023-04-12T17:02:52.028Z,2.20
2023-04-12T17:05:21.106Z,2.17
2023-04-12T17:07:54.390Z,2.28
2023-04-12T17:10:22.731Z,2.30
2023-04-12T17:12:52.768Z,1.98
2023-04-12T17:15:25.574Z,3.15
2023-04-12T17:17:59.931Z,1.70
2023-04-12T17:20:27.346Z,2.03
2023-04-12T17:22:55.502Z,1.15
2023-04-12T17:25:27.342Z,1.40
2023-04-12T17:27:54.433Z,1.45
2023-04-12T17:30:21.802Z,1.58
2023-04-12T17:32:48.899Z,1.58
2023-04-12T17:35:17.902Z,2.00
2023-04-12T17:37:45.987Z,2.70
2023-04-12T17:40:14.252Z,2.70
2023-04-12T17:42:43.165Z,2.25
2023-04-12T17:45:12.789Z,4.55
2023-04-12T17:47:43.176Z,4.90
2023-04-12T17:50:11.684Z,9.52
2023-04-12T17:52:39.400Z,3.30
2023-04-12T17:55:09.332Z,1.80
2023-04-12T17:57:36.812Z,3.85
2023-04-12T18:00:07.760Z,2.97
2023-04-12T18:02:35.068Z,2.05
2023-04-12T18:05:05.434Z,2.63
2023-04-12T18:07:32.492Z,4.03
2023-04-12T18:09:59.688Z,1.92
2023-04-12T18:12:27.303Z,2.17
2023-04-12T18:14:54.904Z,1.40
2023-04-12T18:17:25.045Z,1.40
2023-04-12T18:19:53.682Z,2.10
2023-04-12T18:22:20.845Z,2.13
2023-04-12T18:24:48.114Z,2.55
2023-04-12T18:27:21.447Z,1.75
2023-04-12T18:29:48.844Z,1.90
2023-04-12T18:32:16.143Z,1.90
2023-04-12T18:34:46.607Z,2.10
2023-04-12T18:37:16.297Z,2.42
2023-04-12T18:39:47.051Z,2.70
2023-04-12T18:42:24.452Z,2.30
2023-04-12T18:44:52.869Z,2.63
2023-04-12T18:47:20.510Z,2.67
2023-04-12T18:49:48.395Z,2.28
2023-04-12T18:52:16.194Z,2.40
2023-04-12T18:54:43.491Z,2.35
2023-04-12T18:57:18.836Z,2.60
2023-04-12T18:59:48.283Z,2.50
2023-04-12T19:02:20.311Z,2.38
2023-04-12T19:04:47.691Z,2.88
2023-04-12T19:07:16.688Z,2.47
2023-04-12T19:09:44.196Z,2.60
2023-04-12T19:12:18.298Z,2.92
2023-04-12T19:14:46.093Z,3.00
2023-04-12T19:17:13.554Z,3.45
2023-04-12T19:19:52.069Z,3.42
2023-04-12T19:22:39.416Z,3.38
2023-04-12T19:28:00.147Z,3.47
2023-04-12T19:30:43.960Z,3.75
2023-04-12T19:33:12.768Z,3.88
2023-04-12T19:35:42.591Z,4.63
2023-04-12T19:38:10.292Z,4.20
2023-04-12T19:40:43.446Z,4.32
2023-04-12T19:43:14.418Z,3.88
2023-04-12T19:45:53.842Z,3.22
2023-04-12T19:48:29.438Z,3.35
2023-04-12T19:51:00.811Z,3.42
2023-04-12T19:53:34.844Z,4.13
2023-04-12T19:56:06.279Z,2.85
2023-04-12T19:58:36.125Z,3.88
2023-04-12T20:01:03.506Z,3.67
2023-04-12T20:03:40.198Z,3.40
2023-04-12T20:06:07.512Z,3.20
2023-04-12T20:08:35.727Z,3.35
2023-04-12T20:11:03.037Z,3.22
2023-04-12T20:13:31.483Z,2.30
2023-04-12T20:16:00.970Z,2.58
2023-04-12T20:18:29.763Z,2.42
2023-04-12T20:20:59.832Z,2.17
2023-04-12T20:23:32.146Z,2.08
2023-04-12T20:25:59.438Z,2.10
2023-04-12T20:28:26.740Z,2.60
2023-04-12T20:30:54.270Z,2.17
2023-04-12T20:33:21.447Z,2.50
2023-04-12T20:35:53.395Z,1.83
2023-04-12T20:38:20.557Z,2.25
2023-04-12T20:40:47.687Z,1.90
2023-04-12T20:43:14.756Z,2.30
2023-04-12T20:45:41.857Z,2.13
2023-04-12T20:48:09.882Z,2.03
2023-04-12T20:50:37.521Z,2.10
2023-04-12T20:53:04.907Z,2.38
2023-04-12T20:55:35.120Z,2.13
2023-04-12T20:58:04.381Z,1.88
2023-04-12T21:00:32.866Z,1.55
2023-04-12T21:03:03.190Z,2.13
2023-04-12T21:05:33.800Z,1.90
2023-04-12T21:08:01.146Z,1.73
2023-04-12T21:10:28.419Z,1.80
2023-04-12T21:12:55.708Z,1.73
2023-04-12T21:15:22.843Z,1.50
2023-04-12T21:17:51.701Z,1.55
2023-04-12T21:20:19.177Z,1.80
2023-04-12T21:22:47.937Z,1.60
2023-04-12T21:25:16.472Z,1.50
2023-04-12T21:27:45.270Z,1.42
2023-04-12T21:30:13.008Z,1.58
2023-04-12T21:32:41.424Z,2.10
2023-04-12T21:35:10.058Z,1.50
2023-04-12T21:37:39.501Z,1.58
2023-04-12T21:40:09.543Z,1.13
2023-04-12T21:42:41.101Z,1.58
2023-04-12T21:45:09.841Z,1.60
2023-04-12T21:47:41.829Z,1.48
2023-04-12T21:50:10.159Z,1.38
2023-04-12T21:52:38.107Z,1.23
2023-04-12T21:55:06.677Z,1.20
2023-04-12T21:57:35.122Z,0.90
2023-04-12T22:00:05.491Z,1.50
2023-04-12T22:02:32.765Z,1.27
2023-04-12T22:05:00.027Z,1.27
2023-04-12T22:07:28.645Z,1.23
2023-04-12T22:09:55.650Z,1.45
2023-04-12T22:12:25.699Z,1.23
2023-04-12T22:14:53.053Z,1.30
2023-04-12T22:17:21.693Z,1.27
2023-04-12T22:19:49.122Z,1.00
2023-04-12T22:22:16.382Z,0.93
2023-04-12T22:24:44.421Z,0.90
2023-04-12T22:27:11.570Z,1.00
2023-04-12T22:29:38.679Z,0.90
2023-04-12T22:32:05.750Z,0.90
2023-04-12T22:34:32.774Z,1.15
2023-04-12T22:37:02.930Z,0.70
2023-04-12T22:39:31.914Z,0.80
2023-04-12T22:41:59.704Z,0.93
2023-04-12T22:44:29.302Z,0.85
2023-04-12T22:46:56.930Z,1.00
2023-04-12T22:49:28.402Z,1.02
2023-04-12T22:51:55.974Z,1.20
2023-04-12T22:54:26.275Z,1.23
2023-04-12T22:56:53.458Z,0.82
2023-04-12T22:59:23.022Z,1.00
2023-04-12T23:01:50.530Z,1.00
2023-04-12T23:04:18.554Z,1.40
2023-04-12T23:06:46.454Z,1.90
2023-04-12T23:09:13.600Z,2.28
2023-04-12T23:11:41.940Z,2.13
2023-04-12T23:14:10.070Z,1.20
2023-04-12T23:16:42.616Z,1.13
2023-04-12T23:19:16.834Z,1.20
2023-04-12T23:24:16.455Z,1.10
2023-04-12T23:26:45.417Z,1.05
2023-04-12T23:29:12.851Z,1.30
2023-04-12T23:31:41.458Z,1.00
2023-04-12T23:34:08.521Z,1.30
2023-04-12T23:36:36.462Z,0.98
2023-04-12T23:39:08.634Z,1.02
2023-04-12T23:41:35.752Z,1.20
2023-04-12T23:44:02.876Z,1.30
2023-04-12T23:46:30.038Z,1.13
2023-04-12T23:48:57.205Z,1.25
2023-04-12T23:51:24.320Z,1.10
2023-04-12T23:53:51.879Z,1.30
2023-04-12T23:56:18.973Z,1.20
2023-04-12T23:58:47.201Z,1.02
